createdAt,value
2019-05-05T00:02:35.603Z,4.90
2019-05-05T00:05:15.447Z,4.80
2019-05-05T00:07:45.087Z,4.80
2019-05-05T00:10:16.345Z,4.70
2019-05-05T00:12:54.967Z,4.70
2019-05-05T00:15:37.641Z,4.70
2019-05-05T00:18:07.195Z,4.60
2019-05-05T00:20:36.484Z,4.70
2019-05-05T00:23:05.751Z,4.70
2019-05-05T00:25:35.042Z,4.60
2019-05-05T00:28:05.010Z,4.50
2019-05-05T00:30:34.475Z,4.60
2019-05-05T00:33:05.583Z,4.80
2019-05-05T00:35:34.983Z,4.80
2019-05-05T00:38:05.033Z,4.70
2019-05-05T00:40:35.255Z,4.60
2019-05-05T00:43:05.528Z,4.50
2019-05-05T00:45:36.002Z,4.40
2019-05-05T00:48:24.422Z,4.30
2019-05-05T00:50:55.477Z,4.20
2019-05-05T00:53:25.073Z,4.30
2019-05-05T00:55:54.739Z,4.20
2019-05-05T00:58:24.764Z,4.20
2019-05-05T01:00:55.711Z,4.20
2019-05-05T01:03:26.042Z,4.10
2019-05-05T01:05:59.908Z,4.00
2019-05-05T01:08:29.550Z,4.00
2019-05-05T01:10:59.475Z,4.00
2019-05-05T01:13:28.771Z,4.00
2019-05-05T01:15:58.060Z,4.00
2019-05-05T01:18:27.636Z,4.00
2019-05-05T01:20:57.243Z,4.00
2019-05-05T01:23:26.514Z,4.10
2019-05-05T01:25:55.808Z,4.20
2019-05-05T01:28:25.113Z,4.10
2019-05-05T01:30:56.150Z,4.00
2019-05-05T01:33:27.069Z,4.10
2019-05-05T01:35:56.351Z,4.10
2019-05-05T01:38:27.575Z,4.20
2019-05-05T01:41:14.806Z,4.30
2019-05-05T01:43:45.170Z,4.40
2019-05-05T01:46:14.651Z,4.30
2019-05-05T01:48:44.513Z,4.20
2019-05-05T01:51:14.397Z,4.20
2019-05-05T01:53:44.277Z,4.40
2019-05-05T01:56:15.384Z,4.50
2019-05-05T01:58:45.021Z,4.40
2019-05-05T02:01:15.253Z,4.40
2019-05-05T02:03:45.211Z,4.40
2019-05-05T02:06:14.488Z,4.40
2019-05-05T02:08:45.438Z,4.30
2019-05-05T02:11:15.626Z,4.40
2019-05-05T02:13:45.331Z,4.30
2019-05-05T02:16:15.129Z,4.40
2019-05-05T02:18:45.091Z,4.50
2019-05-05T02:21:14.571Z,4.60
2019-05-05T02:23:45.337Z,4.50
2019-05-05T02:26:15.252Z,4.50
2019-05-05T02:28:55.221Z,4.50
2019-05-05T02:31:26.147Z,4.60
2019-05-05T02:33:56.815Z,4.60
2019-05-05T02:36:26.514Z,4.50
2019-05-05T02:38:56.719Z,4.60
2019-05-05T02:41:26.546Z,4.60
2019-05-05T02:43:56.360Z,4.50
2019-05-05T02:46:30.929Z,4.60
2019-05-05T02:49:05.033Z,4.70
2019-05-05T02:51:35.476Z,4.60
2019-05-05T02:54:05.166Z,4.80
2019-05-05T02:56:39.244Z,4.70
2019-05-05T02:59:10.411Z,4.60
2019-05-05T03:01:44.636Z,4.60
2019-05-05T03:04:14.290Z,4.40
2019-05-05T03:06:46.687Z,4.30
2019-05-05T03:09:16.924Z,4.30
2019-05-05T03:11:48.340Z,4.30
2019-05-05T03:14:19.171Z,4.40
2019-05-05T03:16:49.563Z,4.30
2019-05-05T03:19:20.795Z,4.40
2019-05-05T03:21:50.408Z,4.40
2019-05-05T03:24:20.024Z,4.40
2019-05-05T03:26:49.629Z,4.40
2019-05-05T03:29:20.907Z,4.30
2019-05-05T03:31:51.119Z,4.30
2019-05-05T03:34:20.499Z,4.30
2019-05-05T03:36:50.268Z,4.40
2019-05-05T03:39:23.464Z,4.40
2019-05-05T03:42:00.459Z,4.30
2019-05-05T03:44:33.419Z,4.40
2019-05-05T03:47:03.563Z,4.40
2019-05-05T03:49:33.809Z,4.50
2019-05-05T03:52:04.851Z,4.50
2019-05-05T03:54:34.803Z,4.50
2019-05-05T03:57:09.988Z,4.60
2019-05-05T03:59:41.295Z,4.60
2019-05-05T04:02:24.427Z,4.50
2019-05-05T04:04:55.439Z,4.50
2019-05-05T04:07:24.707Z,4.60
2019-05-05T04:09:54.406Z,4.60
2019-05-05T04:12:24.304Z,4.50
2019-05-05T04:14:54.668Z,4.40
2019-05-05T04:17:33.516Z,4.30
2019-05-05T04:20:04.011Z,4.30
2019-05-05T04:22:34.362Z,4.40
2019-05-05T04:25:04.740Z,4.40
2019-05-05T04:27:34.395Z,4.30
2019-05-05T04:30:05.322Z,4.20
2019-05-05T04:32:34.898Z,4.10
2019-05-05T04:35:05.908Z,4.10
2019-05-05T04:37:35.203Z,4.10
2019-05-05T04:40:05.047Z,4.10
2019-05-05T04:42:34.342Z,4.10
2019-05-05T04:45:07.078Z,3.90
2019-05-05T04:47:38.008Z,4.00
2019-05-05T04:50:21.144Z,4.10
2019-05-05T04:52:53.928Z,4.30
2019-05-05T04:55:24.481Z,4.20
2019-05-05T04:57:54.151Z,4.30
2019-05-05T05:00:24.138Z,4.30
2019-05-05T05:02:55.532Z,4.30
2019-05-05T05:05:26.539Z,4.40
2019-05-05T05:07:57.969Z,4.60
2019-05-05T05:10:26.819Z,4.70
2019-05-05T05:12:56.415Z,4.80
2019-05-05T05:15:25.711Z,5.00
2019-05-05T05:17:59.443Z,5.10
2019-05-05T05:20:28.735Z,5.10
2019-05-05T05:22:58.015Z,5.30
2019-05-05T05:25:27.627Z,5.30
2019-05-05T05:27:56.916Z,5.50
2019-05-05T05:30:26.204Z,5.40
2019-05-05T05:32:55.479Z,5.40
2019-05-05T05:35:24.762Z,5.40
2019-05-05T05:37:57.408Z,5.60
2019-05-05T05:40:44.308Z,6.00
2019-05-05T05:43:15.056Z,6.00
2019-05-05T05:45:45.976Z,6.10
2019-05-05T05:48:16.903Z,6.20
2019-05-05T05:50:56.963Z,6.60
2019-05-05T05:53:26.242Z,6.70
2019-05-05T05:55:55.544Z,6.80
2019-05-05T05:58:25.097Z,6.90
2019-05-05T06:00:55.662Z,7.00
2019-05-05T06:03:24.959Z,7.20
2019-05-05T06:05:54.538Z,7.10
2019-05-05T06:08:24.324Z,7.20
2019-05-05T06:10:54.736Z,7.20
2019-05-05T06:13:24.392Z,7.10
2019-05-05T06:15:53.758Z,7.10
2019-05-05T06:18:24.336Z,7.20
2019-05-05T06:20:53.933Z,7.10
2019-05-05T06:23:23.965Z,7.20
2019-05-05T06:25:55.213Z,7.10
2019-05-05T06:28:24.707Z,7.10
2019-05-05T06:30:54.632Z,7.20
2019-05-05T06:33:24.296Z,7.20
2019-05-05T06:35:53.786Z,7.40
2019-05-05T06:38:24.174Z,7.60
2019-05-05T06:41:07.605Z,7.50
2019-05-05T06:43:55.247Z,7.70
2019-05-05T06:46:34.112Z,7.90
2019-05-05T06:49:04.338Z,7.80
2019-05-05T06:51:33.758Z,7.90
2019-05-05T06:54:04.654Z,8.00
2019-05-05T06:56:34.408Z,8.00
2019-05-05T06:59:04.460Z,8.10
2019-05-05T07:01:34.139Z,8.30
2019-05-05T07:04:03.544Z,8.40
2019-05-05T07:06:34.315Z,8.50
2019-05-05T07:09:05.501Z,8.60
2019-05-05T07:11:34.872Z,8.60
2019-05-05T07:14:04.182Z,8.70
2019-05-05T07:16:34.538Z,8.60
2019-05-05T07:19:04.437Z,8.80
2019-05-05T07:21:34.298Z,8.90
2019-05-05T07:24:04.032Z,9.00
2019-05-05T07:26:34.061Z,9.10
2019-05-05T07:29:04.537Z,9.10
2019-05-05T07:31:34.322Z,9.30
2019-05-05T07:34:04.747Z,9.40
2019-05-05T07:36:41.633Z,9.50
2019-05-05T07:39:11.480Z,9.50
2019-05-05T07:41:41.112Z,9.60
2019-05-05T07:44:24.973Z,9.80
2019-05-05T07:46:41.394Z,9.90
2019-05-05T07:49:19.635Z,9.80
2019-05-05T07:51:49.179Z,10.00
2019-05-05T07:54:18.510Z,10.20
2019-05-05T07:56:47.812Z,10.30
2019-05-05T07:59:17.443Z,10.40
2019-05-05T08:01:47.062Z,10.20
2019-05-05T08:04:16.660Z,10.10
2019-05-05T08:06:46.105Z,10.00
2019-05-05T08:09:15.465Z,9.90
2019-05-05T08:11:45.083Z,9.60
2019-05-05T08:14:14.793Z,9.60
2019-05-05T08:17:01.460Z,9.60
2019-05-05T08:19:34.590Z,9.30
2019-05-05T08:22:03.876Z,9.30
2019-05-05T08:24:50.818Z,9.30
2019-05-05T08:27:25.001Z,9.70
2019-05-05T08:30:02.072Z,9.80
2019-05-05T08:32:35.018Z,10.20
2019-05-05T08:35:04.316Z,10.50
2019-05-05T08:37:34.377Z,10.50
2019-05-05T08:40:06.547Z,10.70
2019-05-05T08:42:35.921Z,10.70
2019-05-05T08:45:06.163Z,10.20
2019-05-05T08:47:35.447Z,9.90
2019-05-05T08:50:07.795Z,9.60
2019-05-05T08:52:37.072Z,9.50
2019-05-05T08:55:06.451Z,9.60
2019-05-05T08:57:35.976Z,9.60
2019-05-05T09:00:07.432Z,9.70
2019-05-05T09:02:36.787Z,9.90
2019-05-05T09:05:06.844Z,9.90
2019-05-05T09:07:36.131Z,9.90
2019-05-05T09:10:06.247Z,10.20
2019-05-05T09:12:35.632Z,10.40
2019-05-05T09:15:08.779Z,10.60
2019-05-05T09:17:38.143Z,10.70
2019-05-05T09:20:07.421Z,10.70
2019-05-05T09:22:36.803Z,10.70
2019-05-05T09:25:24.246Z,11.10
2019-05-05T09:27:55.439Z,11.50
2019-05-05T09:32:51.083Z,11.80
2019-05-05T09:35:20.419Z,12.20
2019-05-05T09:37:49.745Z,12.60
2019-05-05T09:40:24.128Z,12.60
2019-05-05T09:42:53.552Z,12.90
2019-05-05T09:45:24.443Z,13.30
2019-05-05T09:47:54.016Z,13.50
2019-05-05T09:50:23.796Z,13.70
2019-05-05T09:52:53.673Z,13.90
2019-05-05T09:55:24.199Z,13.80
2019-05-05T09:57:54.038Z,13.80
2019-05-05T10:00:24.386Z,14.00
2019-05-05T10:02:54.460Z,14.50
2019-05-05T10:05:24.171Z,14.60
2019-05-05T10:07:54.469Z,14.30
2019-05-05T10:10:24.372Z,13.70
2019-05-05T10:12:55.012Z,13.40
2019-05-05T10:15:24.409Z,13.40
2019-05-05T10:17:54.193Z,12.90
2019-05-05T10:20:23.710Z,12.70
2019-05-05T10:22:54.244Z,12.70
2019-05-05T10:25:37.001Z,12.60
2019-05-05T10:28:06.296Z,12.90
2019-05-05T10:30:35.643Z,13.50
2019-05-05T10:33:04.935Z,13.10
2019-05-05T10:35:34.588Z,12.50
2019-05-05T10:38:04.120Z,12.00
2019-05-05T10:40:34.608Z,11.60
2019-05-05T10:43:04.715Z,11.40
2019-05-05T10:45:34.170Z,10.80
2019-05-05T10:48:04.209Z,10.50
2019-05-05T10:50:34.619Z,10.30
2019-05-05T10:53:04.746Z,10.30
2019-05-05T10:55:34.845Z,10.60
2019-05-05T10:58:04.263Z,11.00
2019-05-05T11:00:48.478Z,11.70
2019-05-05T11:03:17.844Z,12.20
2019-05-05T11:05:47.544Z,12.00
2019-05-05T11:08:16.916Z,11.70
2019-05-05T11:10:46.191Z,11.60
2019-05-05T11:13:15.587Z,11.30
2019-05-05T11:15:44.959Z,11.10
2019-05-05T11:18:15.002Z,11.00
2019-05-05T11:20:45.128Z,10.80
2019-05-05T11:23:15.216Z,10.70
2019-05-05T11:25:45.030Z,10.60
2019-05-05T11:28:14.401Z,10.50
2019-05-05T11:30:46.387Z,10.40
2019-05-05T11:33:34.481Z,10.50
2019-05-05T11:36:06.007Z,10.70
2019-05-05T11:38:35.403Z,10.90
2019-05-05T11:41:05.071Z,11.10
2019-05-05T11:43:34.407Z,11.60
2019-05-05T11:46:05.220Z,12.20
2019-05-05T11:48:34.591Z,12.50
2019-05-05T11:51:04.494Z,12.50
2019-05-05T11:53:34.179Z,12.30
2019-05-05T11:56:04.149Z,11.90
2019-05-05T11:58:34.071Z,11.50
2019-05-05T12:01:03.865Z,11.40
2019-05-05T12:03:34.113Z,11.50
2019-05-05T12:06:03.987Z,11.40
2019-05-05T12:08:34.525Z,11.40
2019-05-05T12:11:05.396Z,11.40
2019-05-05T12:13:35.036Z,11.60
2019-05-05T12:16:05.911Z,11.60
2019-05-05T12:18:35.643Z,11.70
2019-05-05T12:21:05.469Z,11.80
2019-05-05T12:23:34.763Z,11.90
2019-05-05T12:26:08.535Z,12.00
2019-05-05T12:28:51.401Z,12.00
2019-05-05T12:31:24.601Z,11.80
2019-05-05T12:33:54.836Z,11.60
2019-05-05T12:36:24.255Z,11.50
2019-05-05T12:38:54.632Z,11.40
2019-05-05T12:41:24.365Z,11.40
2019-05-05T12:43:54.958Z,11.20
2019-05-05T12:46:38.257Z,11.20
2019-05-05T12:49:09.443Z,11.50
2019-05-05T12:51:38.743Z,11.70
2019-05-05T12:54:08.191Z,11.80
2019-05-05T12:56:37.483Z,11.80
2019-05-05T12:59:08.471Z,12.10
2019-05-05T13:01:39.658Z,12.60
2019-05-05T13:04:08.923Z,13.20
2019-05-05T13:06:38.475Z,13.50
2019-05-05T13:09:08.775Z,14.20
2019-05-05T13:11:38.373Z,14.80
2019-05-05T13:14:07.658Z,15.20
2019-05-05T13:16:36.947Z,15.50
2019-05-05T13:19:07.855Z,15.70
2019-05-05T13:21:45.010Z,15.20
2019-05-05T13:24:34.324Z,15.10
2019-05-05T13:27:10.741Z,14.40
2019-05-05T13:29:39.240Z,14.10
2019-05-05T13:32:08.819Z,13.80
2019-05-05T13:34:38.159Z,14.00
2019-05-05T13:37:07.679Z,15.00
2019-05-05T13:39:37.135Z,15.40
2019-05-05T13:42:06.437Z,15.80
2019-05-05T13:44:49.199Z,15.90
2019-05-05T13:47:18.479Z,15.60
2019-05-05T13:49:47.940Z,15.20
2019-05-05T13:52:17.222Z,15.10
2019-05-05T13:54:46.513Z,14.90
2019-05-05T13:57:15.795Z,14.90
2019-05-05T13:59:45.096Z,15.40
2019-05-05T14:02:14.368Z,16.10
2019-05-05T14:04:43.951Z,16.10
2019-05-05T14:07:13.331Z,15.70
2019-05-05T14:09:44.185Z,15.30
2019-05-05T14:12:14.621Z,15.00
2019-05-05T14:14:44.124Z,14.40
2019-05-05T14:17:14.747Z,13.80
2019-05-05T14:19:44.614Z,13.70
2019-05-05T14:22:14.077Z,13.30
2019-05-05T14:24:45.003Z,13.00
2019-05-05T14:27:14.569Z,12.80
2019-05-05T14:29:57.685Z,12.60
2019-05-05T14:32:31.299Z,12.50
2019-05-05T14:35:05.476Z,12.40
2019-05-05T14:37:36.724Z,12.40
2019-05-05T14:40:07.957Z,12.20
2019-05-05T14:42:37.230Z,12.30
2019-05-05T14:45:07.065Z,12.40
2019-05-05T14:47:36.451Z,12.40
2019-05-05T14:50:06.124Z,12.50
2019-05-05T14:52:35.399Z,12.80
2019-05-05T14:55:08.752Z,13.00
2019-05-05T14:57:38.059Z,13.10
2019-05-05T15:00:10.939Z,13.20
2019-05-05T15:02:40.231Z,13.40
2019-05-05T15:05:27.804Z,13.80
2019-05-05T15:07:58.730Z,13.90
2019-05-05T15:10:47.844Z,14.10
2019-05-05T15:13:17.308Z,14.00
2019-05-05T15:15:46.647Z,13.60
2019-05-05T15:18:16.027Z,13.10
2019-05-05T15:20:45.628Z,12.90
2019-05-05T15:23:15.440Z,12.80
2019-05-05T15:25:44.747Z,12.80
2019-05-05T15:28:14.068Z,12.70
2019-05-05T15:30:44.099Z,12.80
2019-05-05T15:33:13.884Z,12.90
2019-05-05T15:35:46.318Z,13.00
2019-05-05T15:38:14.315Z,13.00
2019-05-05T15:40:44.664Z,13.00
2019-05-05T15:43:15.248Z,13.20
2019-05-05T15:45:44.642Z,13.50
2019-05-05T15:48:14.069Z,13.70
2019-05-05T15:50:44.356Z,13.60
2019-05-05T15:53:14.410Z,13.60
2019-05-05T15:55:47.542Z,13.50
2019-05-05T15:58:16.148Z,13.20
2019-05-05T16:00:47.848Z,13.10
2019-05-05T16:03:18.751Z,12.90
2019-05-05T16:05:48.378Z,12.60
2019-05-05T16:08:17.663Z,12.40
2019-05-05T16:10:47.219Z,12.30
2019-05-05T16:13:16.606Z,12.00
2019-05-05T16:15:47.863Z,11.90
2019-05-05T16:18:24.494Z,11.70
2019-05-05T16:20:55.400Z,11.60
2019-05-05T16:23:29.075Z,11.50
2019-05-05T16:25:58.440Z,11.50
2019-05-05T16:28:27.727Z,11.50
2019-05-05T16:30:57.017Z,11.50
2019-05-05T16:33:28.216Z,11.50
2019-05-05T16:35:57.486Z,11.60
2019-05-05T16:38:26.779Z,11.70
2019-05-05T16:40:56.055Z,11.70
2019-05-05T16:43:25.355Z,11.70
2019-05-05T16:45:54.930Z,11.70
2019-05-05T16:48:25.775Z,11.70
2019-05-05T16:50:55.223Z,11.70
2019-05-05T16:53:37.707Z,11.70
2019-05-05T16:56:10.489Z,11.70
2019-05-05T16:58:39.824Z,11.40
2019-05-05T17:01:10.836Z,11.40
2019-05-05T17:03:40.766Z,11.20
2019-05-05T17:06:10.101Z,11.10
2019-05-05T17:08:39.374Z,11.00
2019-05-05T17:11:08.671Z,11.00
2019-05-05T17:13:51.876Z,11.00
2019-05-05T17:16:40.904Z,10.90
2019-05-05T17:19:17.844Z,10.80
2019-05-05T17:21:53.557Z,10.80
2019-05-05T17:24:24.008Z,10.80
2019-05-05T17:26:54.912Z,10.80
2019-05-05T17:29:24.823Z,10.80
2019-05-05T17:31:54.232Z,10.60
2019-05-05T17:34:24.683Z,10.40
2019-05-05T17:36:54.367Z,10.40
2019-05-05T17:39:25.367Z,10.40
2019-05-05T17:41:56.415Z,10.50
2019-05-05T17:44:27.344Z,10.30
2019-05-05T17:46:58.579Z,10.30
2019-05-05T17:49:32.328Z,10.30
2019-05-05T17:52:06.203Z,10.30
2019-05-05T17:54:44.556Z,10.20
2019-05-05T17:57:14.281Z,10.20
2019-05-05T17:59:44.120Z,10.10
2019-05-05T18:02:13.996Z,10.20
2019-05-05T18:04:44.447Z,10.10
2019-05-05T18:07:24.392Z,10.10
2019-05-05T18:09:58.640Z,10.10
2019-05-05T18:12:41.811Z,9.80
2019-05-05T18:15:13.631Z,9.70
2019-05-05T18:17:43.389Z,9.50
2019-05-05T18:20:12.901Z,9.40
2019-05-05T18:22:43.516Z,9.30
2019-05-05T18:25:14.332Z,9.20
2019-05-05T18:27:43.805Z,9.10
2019-05-05T18:30:13.471Z,9.00
2019-05-05T18:32:42.753Z,8.90
2019-05-05T18:35:13.526Z,8.90
2019-05-05T18:37:43.611Z,8.80
2019-05-05T18:40:14.552Z,8.90
2019-05-05T18:42:44.666Z,8.90
2019-05-05T18:45:15.687Z,8.90
2019-05-05T18:47:44.983Z,8.90
2019-05-05T18:50:14.682Z,9.00
2019-05-05T18:52:47.043Z,9.10
2019-05-05T18:55:15.248Z,9.10
2019-05-05T18:57:44.531Z,9.20
2019-05-05T19:00:16.044Z,9.20
2019-05-05T19:02:53.601Z,9.20
2019-05-05T19:05:36.907Z,9.20
2019-05-05T19:08:10.779Z,9.20
2019-05-05T19:10:40.050Z,9.30
2019-05-05T19:13:09.363Z,9.20
2019-05-05T19:15:38.819Z,9.20
2019-05-05T19:18:08.113Z,9.20
2019-05-05T19:20:39.099Z,9.00
2019-05-05T19:23:09.100Z,9.00
2019-05-05T19:25:38.499Z,8.90
2019-05-05T19:28:08.143Z,8.90
2019-05-05T19:30:37.784Z,8.90
2019-05-05T19:33:07.151Z,8.90
2019-05-05T19:35:43.720Z,8.90
2019-05-05T19:38:07.440Z,8.90
2019-05-05T19:40:36.776Z,8.80
2019-05-05T19:43:06.087Z,8.80
2019-05-05T19:45:35.615Z,8.70
2019-05-05T19:48:06.044Z,8.70
2019-05-05T19:50:40.042Z,8.70
2019-05-05T19:53:25.420Z,8.70
2019-05-05T19:55:55.657Z,8.70
2019-05-05T19:58:24.931Z,8.80
2019-05-05T20:00:56.025Z,8.80
2019-05-05T20:03:25.406Z,8.90
2019-05-05T20:05:54.983Z,9.10
2019-05-05T20:08:24.260Z,9.10
2019-05-05T20:10:54.182Z,9.10
2019-05-05T20:13:24.063Z,9.10
2019-05-05T20:15:54.975Z,9.20
2019-05-05T20:18:24.940Z,9.20
2019-05-05T20:21:03.761Z,9.20
2019-05-05T20:23:26.002Z,9.20
2019-05-05T20:25:56.762Z,9.20
2019-05-05T20:28:26.254Z,9.10
2019-05-05T20:30:55.784Z,9.10
2019-05-05T20:33:38.478Z,9.00
2019-05-05T20:36:25.000Z,9.00
2019-05-05T20:38:55.465Z,9.10
2019-05-05T20:41:25.044Z,9.10
2019-05-05T20:43:54.507Z,9.10
2019-05-05T20:46:23.923Z,9.20
2019-05-05T20:48:54.481Z,9.30
2019-05-05T20:51:24.355Z,9.30
2019-05-05T20:53:54.295Z,9.30
2019-05-05T20:56:24.115Z,9.40
2019-05-05T20:58:54.858Z,9.40
2019-05-05T21:01:24.749Z,9.30
2019-05-05T21:03:54.000Z,9.30
2019-05-05T21:06:24.590Z,9.20
2019-05-05T21:08:54.137Z,9.10
2019-05-05T21:11:24.688Z,9.20
2019-05-05T21:13:54.403Z,9.10
2019-05-05T21:16:24.059Z,9.00
2019-05-05T21:18:54.018Z,9.00
2019-05-05T21:21:25.323Z,8.90
2019-05-05T21:23:56.258Z,8.90
2019-05-05T21:26:45.910Z,8.80
2019-05-05T21:29:15.996Z,8.80
2019-05-05T21:31:45.287Z,8.80
2019-05-05T21:34:14.583Z,8.60
2019-05-05T21:36:44.703Z,8.50
2019-05-05T21:39:15.071Z,8.30
2019-05-05T21:41:44.455Z,8.20
2019-05-05T21:44:14.638Z,8.10
2019-05-05T21:46:44.235Z,8.10
2019-05-05T21:49:13.886Z,8.10
2019-05-05T21:51:47.904Z,8.00
2019-05-05T21:54:36.755Z,8.00
2019-05-05T21:57:07.687Z,8.00
2019-05-05T21:59:36.983Z,8.00
2019-05-05T22:02:06.591Z,8.00
2019-05-05T22:04:35.892Z,7.90
2019-05-05T22:07:05.403Z,7.90
2019-05-05T22:09:34.691Z,8.00
2019-05-05T22:12:04.226Z,8.00
2019-05-05T22:14:34.141Z,8.00
2019-05-05T22:17:04.129Z,8.00
2019-05-05T22:19:44.566Z,8.00
2019-05-05T22:22:15.471Z,7.90
2019-05-05T22:24:44.768Z,7.90
2019-05-05T22:27:14.039Z,7.90
2019-05-05T22:29:44.648Z,7.90
2019-05-05T22:32:14.159Z,8.00
2019-05-05T22:34:44.391Z,8.00
2019-05-05T22:37:14.333Z,7.90
2019-05-05T22:39:44.495Z,8.00
2019-05-05T22:42:15.714Z,8.50
2019-05-05T22:44:45.127Z,8.70
2019-05-05T22:47:14.868Z,8.90
2019-05-05T22:49:44.432Z,8.90
2019-05-05T22:52:14.430Z,9.00
2019-05-05T22:54:44.395Z,9.00
2019-05-05T22:57:14.103Z,8.90
2019-05-05T22:59:43.481Z,9.10
2019-05-05T23:02:14.716Z,9.20
2019-05-05T23:04:48.402Z,9.40
2019-05-05T23:07:25.353Z,9.30
2019-05-05T23:09:54.643Z,9.30
2019-05-05T23:12:24.367Z,9.40
2019-05-05T23:14:54.545Z,9.30
2019-05-05T23:17:26.445Z,9.30
2019-05-05T23:19:57.580Z,9.20
2019-05-05T23:22:37.583Z,9.10
2019-05-05T23:25:11.220Z,9.10
2019-05-05T23:27:50.657Z,9.00
2019-05-05T23:30:32.143Z,9.00
2019-05-05T23:32:55.019Z,9.00
2019-05-05T23:35:24.388Z,8.90
2019-05-05T23:37:55.233Z,8.90
2019-05-05T23:40:26.714Z,8.90
2019-05-05T23:42:55.995Z,9.10
2019-05-05T23:45:25.282Z,9.10
2019-05-05T23:47:54.849Z,9.10
2019-05-05T23:50:24.611Z,9.10
2019-05-05T23:52:54.702Z,9.10
2019-05-05T23:55:24.303Z,9.30
2019-05-05T23:57:54.587Z,9.30
